createdAt,value
2022-12-13T00:01:28.779Z,23.40
2022-12-13T00:03:58.217Z,15.82
2022-12-13T00:06:25.405Z,24.17
2022-12-13T00:08:53.608Z,13.13
2022-12-13T00:11:20.818Z,18.88
2022-12-13T00:13:48.161Z,21.70
2022-12-13T00:16:24.276Z,19.45
2022-12-13T00:18:57.321Z,16.50
2022-12-13T00:21:29.338Z,21.40
2022-12-13T00:23:57.476Z,22.92
2022-12-13T00:26:29.755Z,20.65
2022-12-13T00:28:58.876Z,27.08
2022-12-13T00:34:12.823Z,13.90
2022-12-13T00:36:40.189Z,19.67
2022-12-13T00:39:07.054Z,18.42
2022-12-13T00:41:36.300Z,16.10
2022-12-13T00:44:05.179Z,15.93
2022-12-13T00:46:32.836Z,20.35
2022-12-13T00:49:01.667Z,18.50
2022-12-13T00:51:31.333Z,20.83
2022-12-13T00:53:59.409Z,18.50
2022-12-13T00:56:30.406Z,18.58
2022-12-13T00:58:58.180Z,17.13
2022-12-13T01:01:28.761Z,18.90
2022-12-13T01:03:59.013Z,18.60
2022-12-13T01:06:34.173Z,21.05
2022-12-13T01:09:01.857Z,19.33
2022-12-13T01:11:28.828Z,19.08
2022-12-13T01:13:55.635Z,12.57
2022-12-13T01:16:22.502Z,18.73
2022-12-13T01:18:49.384Z,21.75
2022-12-13T01:21:20.311Z,18.77
2022-12-13T01:23:49.534Z,21.95
2022-12-13T01:26:20.263Z,19.70
2022-12-13T01:28:48.194Z,19.15
2022-12-13T01:31:19.287Z,20.02
2022-12-13T01:33:46.322Z,23.65
2022-12-13T01:36:19.810Z,15.73
2022-12-13T01:38:59.318Z,16.52
2022-12-13T01:41:28.667Z,16.08
2022-12-13T01:44:03.404Z,16.15
2022-12-13T01:46:36.252Z,21.25
2022-12-13T01:52:03.859Z,15.30
2022-12-13T01:54:37.026Z,11.30
2022-12-13T01:57:07.890Z,12.15
2022-12-13T01:59:37.886Z,14.98
2022-12-13T02:02:06.074Z,13.02
2022-12-13T02:05:20.974Z,8.70
2022-12-13T02:07:48.760Z,17.60
2022-12-13T02:10:15.707Z,18.33
2022-12-13T02:12:42.989Z,20.13
2022-12-13T02:15:18.705Z,18.27
2022-12-13T02:18:35.550Z,21.27
2022-12-13T02:21:16.076Z,14.18
2022-12-13T02:24:26.314Z,16.73
2022-12-13T02:27:12.070Z,14.63
2022-12-13T02:30:19.471Z,14.07
2022-12-13T02:33:25.386Z,16.55
2022-12-13T02:36:08.572Z,12.55
2022-12-13T02:38:57.001Z,16.80
2022-12-13T02:41:41.551Z,12.70
2022-12-13T02:44:22.417Z,12.98
2022-12-13T02:46:59.308Z,15.70
2022-12-13T02:49:31.387Z,9.45
2022-12-13T02:52:00.475Z,11.57
2022-12-13T02:54:27.407Z,15.13
2022-12-13T02:56:59.271Z,15.82
2022-12-13T02:59:35.078Z,17.05
2022-12-13T03:02:41.902Z,17.60
2022-12-13T03:05:58.646Z,19.15
2022-12-13T03:08:48.842Z,15.55
2022-12-13T03:11:18.887Z,12.93
2022-12-13T03:13:58.192Z,15.75
2022-12-13T03:16:40.238Z,18.88
2022-12-13T03:19:10.858Z,19.17
2022-12-13T03:21:48.986Z,19.30
2022-12-13T03:24:21.562Z,18.98
2022-12-13T03:29:24.373Z,14.65
2022-12-13T03:31:53.283Z,17.88
2022-12-13T03:34:22.344Z,18.27
2022-12-13T03:36:51.325Z,12.75
2022-12-13T03:39:18.288Z,19.63
2022-12-13T03:41:45.233Z,23.80
2022-12-13T03:44:12.231Z,21.40
2022-12-13T03:46:39.115Z,24.52
2022-12-13T03:49:05.932Z,20.45
2022-12-13T03:51:32.857Z,20.50
2022-12-13T03:53:59.643Z,18.63
2022-12-13T03:56:26.491Z,22.38
2022-12-13T03:58:54.099Z,18.52
2022-12-13T04:01:22.222Z,18.35
2022-12-13T04:03:49.187Z,16.45
2022-12-13T04:06:21.892Z,19.65
2022-12-13T04:08:50.922Z,21.67
2022-12-13T04:11:42.475Z,20.17
2022-12-13T04:14:11.879Z,13.83
2022-12-13T04:16:39.248Z,18.20
2022-12-13T04:19:06.043Z,13.75
2022-12-13T04:21:32.895Z,17.63
2022-12-13T04:24:01.028Z,16.92
2022-12-13T04:26:28.673Z,15.35
2022-12-13T04:28:56.087Z,16.75
2022-12-13T04:31:23.501Z,16.13
2022-12-13T04:33:51.254Z,16.05
2022-12-13T04:36:31.643Z,16.13
2022-12-13T04:39:22.036Z,15.98
2022-12-13T04:41:53.778Z,14.93
2022-12-13T04:44:28.672Z,18.30
2022-12-13T04:47:00.718Z,14.90
2022-12-13T04:49:29.780Z,16.52
2022-12-13T04:52:01.188Z,16.05
2022-12-13T04:54:36.231Z,22.08
2022-12-13T04:57:06.494Z,22.17
2022-12-13T04:59:33.379Z,21.23
2022-12-13T05:02:00.229Z,17.83
2022-12-13T05:04:32.238Z,20.48
2022-12-13T05:07:00.619Z,19.33
2022-12-13T05:09:27.475Z,20.58
2022-12-13T05:12:01.270Z,19.55
2022-12-13T05:14:32.931Z,22.70
2022-12-13T05:17:01.185Z,14.50
2022-12-13T05:19:30.672Z,22.05
2022-12-13T05:22:01.825Z,21.25
2022-12-13T05:24:30.648Z,23.00
2022-12-13T05:26:58.650Z,24.15
2022-12-13T05:29:27.501Z,18.33
2022-12-13T05:31:54.526Z,22.48
2022-12-13T05:34:21.447Z,21.83
2022-12-13T05:36:48.246Z,26.08
2022-12-13T05:39:28.889Z,22.67
2022-12-13T05:42:02.007Z,32.00
2022-12-13T05:44:31.335Z,29.20
2022-12-13T05:46:59.063Z,36.13
2022-12-13T05:49:29.039Z,26.85
2022-12-13T05:51:55.848Z,22.35
2022-12-13T05:54:23.137Z,23.50
2022-12-13T05:59:30.455Z,23.20
2022-12-13T06:01:57.281Z,21.45
2022-12-13T06:04:24.120Z,16.48
2022-12-13T06:06:52.446Z,18.00
2022-12-13T06:09:20.665Z,25.23
2022-12-13T06:11:48.685Z,20.67
2022-12-13T06:14:22.828Z,30.27
2022-12-13T06:16:51.954Z,25.20
2022-12-13T06:19:20.908Z,23.80
2022-12-13T06:21:48.096Z,22.50
2022-12-13T06:24:16.429Z,20.48
2022-12-13T06:26:45.388Z,21.08
2022-12-13T06:29:23.393Z,25.10
2022-12-13T06:31:54.864Z,16.40
2022-12-13T06:34:32.250Z,21.40
2022-12-13T06:36:59.147Z,28.05
2022-12-13T06:39:32.674Z,25.42
2022-12-13T06:42:07.904Z,21.48
2022-12-13T06:44:35.460Z,27.02
2022-12-13T06:47:10.144Z,38.67
2022-12-13T06:49:42.059Z,42.60
2022-12-13T06:52:12.555Z,36.05
2022-12-13T06:54:39.484Z,44.35
2022-12-13T06:57:06.320Z,43.42
2022-12-13T06:59:33.132Z,39.45
2022-12-13T07:02:03.789Z,40.38
2022-12-13T07:04:32.413Z,33.55
2022-12-13T07:07:01.416Z,45.80
2022-12-13T07:09:31.070Z,34.17
2022-12-13T07:11:58.785Z,44.10
2022-12-13T07:14:26.099Z,34.08
2022-12-13T07:16:56.628Z,28.17
2022-12-13T07:19:28.193Z,30.50
2022-12-13T07:22:05.579Z,34.05
2022-12-13T07:24:32.928Z,27.17
2022-12-13T07:26:59.685Z,22.58
2022-12-13T07:29:26.455Z,25.27
2022-12-13T07:31:53.668Z,28.35
2022-12-13T07:34:28.007Z,26.38
2022-12-13T07:36:54.846Z,27.80
2022-12-13T07:39:25.903Z,27.60
2022-12-13T07:41:56.303Z,25.98
2022-12-13T07:44:24.462Z,23.35
2022-12-13T07:46:51.417Z,29.02
2022-12-13T07:49:18.712Z,26.08
2022-12-13T07:51:45.519Z,15.57
2022-12-13T07:54:12.343Z,28.50
2022-12-13T07:56:39.122Z,23.40
2022-12-13T07:59:05.987Z,26.90
2022-12-13T08:01:36.405Z,30.20
2022-12-13T08:04:04.901Z,57.17
2022-12-13T08:06:37.315Z,33.95
2022-12-13T08:09:05.828Z,34.10
2022-12-13T08:11:33.002Z,26.27
2022-12-13T08:13:59.868Z,32.25
2022-12-13T08:16:29.347Z,28.05
2022-12-13T08:19:01.071Z,24.48
2022-12-13T08:24:28.156Z,25.63
2022-12-13T08:27:03.826Z,27.85
2022-12-13T08:29:35.637Z,27.25
2022-12-13T08:32:07.171Z,32.50
2022-12-13T08:34:34.004Z,31.80
2022-12-13T08:37:01.642Z,25.63
2022-12-13T08:39:38.387Z,32.17
2022-12-13T08:42:14.901Z,40.08
2022-12-13T08:44:45.793Z,33.67
2022-12-13T08:47:13.421Z,28.92
2022-12-13T08:50:02.318Z,22.60
2022-12-13T08:52:31.365Z,25.30
2022-12-13T08:54:58.262Z,28.85
2022-12-13T08:57:25.187Z,27.10
2022-12-13T08:59:52.011Z,28.75
2022-12-13T09:02:18.917Z,26.52
2022-12-13T09:04:46.040Z,22.50
2022-12-13T09:07:13.145Z,28.52
2022-12-13T09:09:39.996Z,26.20
2022-12-13T09:12:10.716Z,27.63
2022-12-13T09:14:53.885Z,28.58
2022-12-13T09:17:36.529Z,25.23
2022-12-13T09:20:10.170Z,30.48
2022-12-13T09:22:54.393Z,33.88
2022-12-13T09:25:37.285Z,38.17
2022-12-13T09:28:08.925Z,38.35
2022-12-13T09:30:37.940Z,39.67
2022-12-13T09:33:28.372Z,36.47
2022-12-13T09:35:52.760Z,31.35
2022-12-13T09:38:19.998Z,33.40
2022-12-13T09:40:49.370Z,29.92
2022-12-13T09:43:31.927Z,32.55
2022-12-13T09:46:22.377Z,33.55
2022-12-13T09:49:01.147Z,33.53
2022-12-13T09:51:43.076Z,34.20
2022-12-13T09:54:26.749Z,32.05
2022-12-13T09:56:56.722Z,35.22
2022-12-13T09:59:34.889Z,28.77
2022-12-13T10:02:17.331Z,33.33
2022-12-13T10:04:44.694Z,29.95
2022-12-13T10:07:21.486Z,38.28
2022-12-13T10:09:50.236Z,37.60
2022-12-13T10:12:17.807Z,34.58
2022-12-13T10:14:59.531Z,39.40
2022-12-13T10:17:38.190Z,30.23
2022-12-13T10:20:07.887Z,32.40
2022-12-13T10:22:34.699Z,34.90
2022-12-13T10:25:05.119Z,31.92
2022-12-13T10:27:47.044Z,40.58
2022-12-13T10:30:23.131Z,36.75
2022-12-13T10:33:03.622Z,31.90
2022-12-13T10:35:40.928Z,41.60
2022-12-13T10:38:07.665Z,38.05
2022-12-13T10:40:38.764Z,39.35
2022-12-13T10:43:17.353Z,30.95
2022-12-13T10:46:00.459Z,61.95
2022-12-13T10:48:40.088Z,52.88
2022-12-13T10:51:17.744Z,36.95
2022-12-13T10:53:56.911Z,35.38
2022-12-13T10:57:00.001Z,33.17
2022-12-13T10:59:36.833Z,34.33
2022-12-13T11:02:41.622Z,33.00
2022-12-13T11:05:29.558Z,35.88
2022-12-13T11:08:15.342Z,34.55
2022-12-13T11:10:42.932Z,32.63
2022-12-13T11:13:27.573Z,67.22
2022-12-13T11:15:56.750Z,29.58
2022-12-13T11:18:26.214Z,38.47
2022-12-13T11:21:03.874Z,28.70
2022-12-13T11:23:43.613Z,30.15
2022-12-13T11:26:24.513Z,32.70
2022-12-13T11:28:58.842Z,36.72
2022-12-13T11:31:44.091Z,44.88
2022-12-13T11:34:35.682Z,32.28
2022-12-13T11:37:30.302Z,30.33
2022-12-13T11:40:15.606Z,26.20
2022-12-13T11:42:53.626Z,28.13
2022-12-13T11:45:36.215Z,25.25
2022-12-13T11:48:10.685Z,27.73
2022-12-13T11:50:42.337Z,27.38
2022-12-13T11:53:46.359Z,29.70
2022-12-13T11:56:31.689Z,33.13
2022-12-13T11:59:30.659Z,27.42
2022-12-13T12:02:40.400Z,42.72
2022-12-13T12:05:38.275Z,35.17
2022-12-13T12:08:31.881Z,35.55
2022-12-13T12:11:35.896Z,31.27
2022-12-13T12:14:22.102Z,33.83
2022-12-13T12:16:55.500Z,34.88
2022-12-13T12:19:39.231Z,29.15
2022-12-13T12:22:50.910Z,40.40
2022-12-13T12:25:52.355Z,31.48
2022-12-13T12:29:01.423Z,35.50
2022-12-13T12:31:41.137Z,34.30
2022-12-13T12:34:53.863Z,37.67
2022-12-13T12:37:54.290Z,23.08
2022-12-13T12:41:17.936Z,33.83
2022-12-13T12:43:50.380Z,32.42
2022-12-13T12:47:09.929Z,35.03
2022-12-13T12:50:34.410Z,29.90
2022-12-13T12:53:23.929Z,25.17
2022-12-13T12:56:02.540Z,25.48
2022-12-13T12:58:51.248Z,26.90
2022-12-13T13:01:43.689Z,24.27
2022-12-13T13:04:14.273Z,19.10
2022-12-13T13:07:22.392Z,27.20
2022-12-13T13:09:55.004Z,31.48
2022-12-13T13:12:30.175Z,37.45
2022-12-13T13:14:58.407Z,32.88
2022-12-13T13:17:25.151Z,28.02
2022-12-13T13:20:17.492Z,29.70
2022-12-13T13:22:53.732Z,32.40
2022-12-13T13:25:35.176Z,25.42
2022-12-13T13:28:19.290Z,30.55
2022-12-13T13:31:10.404Z,27.88
2022-12-13T13:33:49.925Z,30.00
2022-12-13T13:36:41.744Z,33.08
2022-12-13T13:39:37.691Z,31.25
2022-12-13T13:42:29.999Z,35.47
2022-12-13T13:45:17.191Z,27.10
2022-12-13T13:48:14.314Z,32.22
2022-12-13T13:51:04.811Z,27.45
2022-12-13T13:54:13.482Z,40.92
2022-12-13T13:57:13.966Z,36.05
2022-12-13T14:00:18.103Z,44.25
2022-12-13T14:03:22.435Z,55.53
2022-12-13T14:06:52.422Z,58.10
2022-12-13T14:09:43.982Z,35.05
2022-12-13T14:12:29.482Z,39.55
2022-12-13T14:15:21.104Z,36.72
2022-12-13T14:18:24.980Z,36.17
2022-12-13T14:21:43.356Z,35.50
2022-12-13T14:24:40.711Z,34.10
2022-12-13T14:27:15.812Z,36.05
2022-12-13T14:29:48.506Z,40.28
2022-12-13T14:32:30.594Z,25.43
2022-12-13T14:34:58.634Z,40.60
2022-12-13T14:37:34.631Z,40.70
2022-12-13T14:40:12.443Z,32.92
2022-12-13T14:42:41.754Z,42.22
2022-12-13T14:45:31.125Z,41.55
2022-12-13T14:50:44.757Z,40.97
2022-12-13T14:53:33.270Z,37.30
2022-12-13T14:56:28.024Z,43.72
2022-12-13T14:58:58.669Z,39.78
2022-12-13T15:01:32.155Z,38.90
2022-12-13T15:04:21.109Z,41.67
2022-12-13T15:07:02.919Z,39.65
2022-12-13T15:09:31.266Z,35.03
2022-12-13T15:12:14.853Z,39.15
2022-12-13T15:14:53.594Z,42.17
2022-12-13T15:17:49.825Z,47.75
2022-12-13T15:20:32.342Z,49.28
2022-12-13T15:23:03.536Z,47.45
2022-12-13T15:25:34.281Z,45.38
2022-12-13T15:28:01.067Z,73.00
2022-12-13T15:30:32.106Z,55.70
2022-12-13T15:33:03.595Z,45.00
2022-12-13T15:35:30.583Z,56.80
2022-12-13T15:37:57.519Z,55.45
2022-12-13T15:40:25.185Z,54.92
2022-12-13T15:42:52.175Z,49.47
2022-12-13T15:45:29.176Z,51.55
2022-12-13T15:48:00.219Z,52.35
2022-12-13T15:50:45.329Z,43.65
2022-12-13T15:53:34.290Z,49.58
2022-12-13T15:56:07.835Z,49.53
2022-12-13T15:58:37.442Z,71.00
2022-12-13T16:01:07.494Z,59.60
2022-12-13T16:03:44.004Z,53.42
2022-12-13T16:06:18.328Z,57.20
2022-12-13T16:08:49.386Z,58.25
2022-12-13T16:11:31.174Z,56.80
2022-12-13T16:14:37.974Z,55.60
2022-12-13T16:17:25.017Z,71.00
2022-12-13T16:19:54.487Z,61.88
2022-12-13T16:22:23.806Z,69.78
2022-12-13T16:24:56.318Z,58.92
2022-12-13T16:27:23.238Z,68.82
2022-12-13T16:29:50.066Z,56.88
2022-12-13T16:32:16.942Z,53.15
2022-12-13T16:34:43.752Z,44.65
2022-12-13T16:37:26.804Z,54.65
2022-12-13T16:39:54.802Z,43.08
2022-12-13T16:42:26.438Z,45.42
2022-12-13T16:45:17.907Z,45.45
2022-12-13T16:47:48.312Z,49.30
2022-12-13T16:50:20.157Z,50.78
2022-12-13T16:52:48.460Z,41.05
2022-12-13T16:55:15.597Z,52.95
2022-12-13T16:57:42.378Z,53.97
2022-12-13T17:00:12.926Z,54.08
2022-12-13T17:02:39.798Z,57.45
2022-12-13T17:05:07.072Z,64.32
2022-12-13T17:07:35.448Z,50.40
2022-12-13T17:10:02.690Z,55.45
2022-12-13T17:12:29.719Z,51.50
2022-12-13T17:14:56.784Z,163.68
2022-12-13T17:17:23.687Z,80.18
2022-12-13T17:19:50.572Z,68.32
2022-12-13T17:22:17.438Z,55.65
2022-12-13T17:24:44.763Z,56.03
2022-12-13T17:27:12.004Z,48.00
2022-12-13T17:29:38.866Z,47.33
2022-12-13T17:32:05.786Z,45.92
2022-12-13T17:34:32.767Z,46.17
2022-12-13T17:36:59.655Z,56.38
2022-12-13T17:39:26.517Z,51.92
2022-12-13T17:41:55.310Z,48.55
2022-12-13T17:44:26.142Z,47.30
2022-12-13T17:46:54.753Z,54.83
2022-12-13T17:49:23.023Z,57.63
2022-12-13T17:51:52.668Z,52.17
2022-12-13T17:54:24.203Z,59.50
2022-12-13T17:56:52.979Z,66.95
2022-12-13T17:59:20.469Z,75.97
2022-12-13T18:01:47.909Z,61.35
2022-12-13T18:04:15.679Z,52.67
2022-12-13T18:06:42.964Z,54.72
2022-12-13T18:09:11.960Z,52.40
2022-12-13T18:11:39.680Z,64.30
2022-12-13T18:14:08.383Z,75.93
2022-12-13T18:16:38.457Z,62.95
2022-12-13T18:19:08.426Z,46.78
2022-12-13T18:21:36.611Z,49.85
2022-12-13T18:24:05.225Z,45.63
2022-12-13T18:26:32.042Z,47.13
2022-12-13T18:28:58.876Z,49.45
2022-12-13T18:31:26.081Z,41.50
2022-12-13T18:33:54.091Z,65.03
2022-12-13T18:36:24.059Z,52.05
2022-12-13T18:38:51.389Z,47.42
2022-12-13T18:41:28.166Z,56.97
2022-12-13T18:44:04.587Z,53.80
2022-12-13T18:46:35.221Z,57.58
2022-12-13T18:49:02.902Z,47.88
2022-12-13T18:51:29.889Z,58.00
2022-12-13T18:53:56.892Z,53.45
2022-12-13T18:56:24.399Z,56.92
2022-12-13T18:58:52.331Z,54.15
2022-12-13T19:01:20.590Z,52.35
2022-12-13T19:03:48.724Z,52.17
2022-12-13T19:06:19.181Z,54.28
2022-12-13T19:08:51.631Z,59.03
2022-12-13T19:11:20.093Z,48.92
2022-12-13T19:13:47.822Z,52.22
2022-12-13T19:16:18.297Z,52.92
2022-12-13T19:18:45.680Z,44.90
2022-12-13T19:21:17.274Z,57.58
2022-12-13T19:23:47.304Z,55.90
2022-12-13T19:28:44.879Z,36.22
2022-12-13T19:31:14.283Z,51.63
2022-12-13T19:33:42.704Z,53.67
2022-12-13T19:36:11.310Z,50.03
2022-12-13T19:38:41.892Z,40.58
2022-12-13T19:41:12.190Z,55.00
2022-12-13T19:43:39.041Z,51.88
2022-12-13T19:46:06.181Z,44.38
2022-12-13T19:48:34.299Z,43.88
2022-12-13T19:51:04.328Z,52.42
2022-12-13T19:53:32.449Z,51.88
2022-12-13T19:55:59.747Z,50.33
2022-12-13T19:58:27.163Z,48.28
2022-12-13T20:01:02.080Z,61.67
2022-12-13T20:03:33.667Z,42.42
2022-12-13T20:06:02.521Z,52.53
2022-12-13T20:08:29.822Z,51.10
2022-12-13T20:11:13.253Z,56.08
2022-12-13T20:13:40.900Z,59.35
2022-12-13T20:16:08.275Z,56.35
2022-12-13T20:18:35.142Z,64.47
2022-12-13T20:21:13.594Z,53.97
2022-12-13T20:23:49.513Z,54.65
2022-12-13T20:26:31.658Z,57.78
2022-12-13T20:28:59.217Z,50.97
2022-12-13T20:31:33.173Z,54.55
2022-12-13T20:34:06.658Z,51.17
2022-12-13T20:36:33.508Z,53.75
2022-12-13T20:39:02.972Z,46.13
2022-12-13T20:41:33.370Z,43.17
2022-12-13T20:44:01.872Z,52.67
2022-12-13T20:46:30.546Z,54.60
2022-12-13T20:49:00.132Z,52.20
2022-12-13T20:51:29.506Z,59.72
2022-12-13T20:53:56.928Z,48.67
2022-12-13T20:56:32.660Z,49.03
2022-12-13T20:58:59.472Z,47.95
2022-12-13T21:01:30.572Z,45.75
2022-12-13T21:04:00.739Z,49.42
2022-12-13T21:06:29.656Z,37.22
2022-12-13T21:09:02.709Z,72.82
2022-12-13T21:11:46.815Z,47.70
2022-12-13T21:14:25.215Z,44.67
2022-12-13T21:17:00.183Z,45.65
2022-12-13T21:19:39.988Z,38.10
2022-12-13T21:22:07.767Z,39.28
2022-12-13T21:24:34.626Z,38.35
2022-12-13T21:27:01.521Z,44.78
2022-12-13T21:29:28.493Z,47.83
2022-12-13T21:31:56.133Z,39.58
2022-12-13T21:34:23.552Z,42.13
2022-12-13T21:36:52.461Z,42.80
2022-12-13T21:39:23.244Z,44.72
2022-12-13T21:41:50.955Z,41.97
2022-12-13T21:44:19.475Z,40.00
2022-12-13T21:47:11.298Z,41.38
2022-12-13T21:49:34.088Z,38.88
2022-12-13T21:52:00.915Z,42.42
2022-12-13T21:54:29.440Z,39.45
2022-12-13T21:57:14.607Z,38.38
2022-12-13T21:59:41.464Z,43.35
2022-12-13T22:02:16.818Z,46.72
2022-12-13T22:04:50.765Z,46.47
2022-12-13T22:07:18.564Z,47.40
2022-12-13T22:09:46.274Z,52.80
2022-12-13T22:12:22.014Z,54.42
2022-12-13T22:14:49.709Z,43.40
2022-12-13T22:17:17.736Z,43.42
2022-12-13T22:19:48.552Z,38.50
2022-12-13T22:22:20.994Z,50.03
2022-12-13T22:24:53.691Z,46.93
2022-12-13T22:27:25.444Z,43.88
2022-12-13T22:29:57.727Z,33.80
2022-12-13T22:32:27.170Z,36.22
2022-12-13T22:34:54.654Z,40.25
2022-12-13T22:37:21.970Z,40.13
2022-12-13T22:39:48.832Z,39.13
2022-12-13T22:42:15.815Z,39.28
2022-12-13T22:44:42.954Z,35.92
2022-12-13T22:47:09.774Z,33.88
2022-12-13T22:49:36.668Z,40.28
2022-12-13T22:52:03.631Z,43.53
2022-12-13T22:54:30.434Z,37.95
2022-12-13T22:56:58.734Z,37.50
2022-12-13T22:59:25.772Z,31.33
2022-12-13T23:01:56.651Z,35.50
2022-12-13T23:04:28.527Z,36.42
2022-12-13T23:06:55.401Z,33.53
2022-12-13T23:09:22.987Z,35.85
2022-12-13T23:12:08.571Z,37.03
2022-12-13T23:14:38.598Z,33.72
2022-12-13T23:17:05.827Z,36.53
2022-12-13T23:19:50.661Z,32.78
2022-12-13T23:22:25.646Z,31.85
2022-12-13T23:24:53.346Z,46.30
2022-12-13T23:27:23.349Z,56.25
2022-12-13T23:29:50.830Z,44.25
2022-12-13T23:32:17.856Z,36.30
2022-12-13T23:34:46.074Z,30.13
2022-12-13T23:37:13.126Z,31.90
2022-12-13T23:39:40.860Z,31.25
2022-12-13T23:42:10.871Z,31.85
2022-12-13T23:44:40.167Z,32.85
2022-12-13T23:47:08.057Z,30.02
2022-12-13T23:49:34.994Z,36.63
2022-12-13T23:52:19.149Z,32.35
2022-12-13T23:54:46.951Z,32.33
2022-12-13T23:57:13.834Z,33.90
2022-12-13T23:59:41.024Z,31.77
